Time;durP1;ratioP1;P1;durP2;ratioP2;P2;SDS_P1;SDS_P2;PMS_P1;PMS_P2;Temp;Humidity;BMP_temperature;BMP_pressure;BME280_temperature;BME280_humidity;BME280_pressure;Samples;Min_cycle;Max_cycle;Signal;HPM_P1;HPM_P2
2021/01/10 00:00:09;;;;;;;1.70;0.20;;;1.40;99.90;;;;;;5089762;28;20670;-62
2021/01/10 00:02:35;;;;;;;1.70;0.20;;;1.30;99.90;;;;;;5089077;28;20715;-62
2021/01/10 00:05:01;;;;;;;1.70;0.20;;;1.40;99.90;;;;;;5093393;28;20219;-64
2021/01/10 00:07:26;;;;;;;1.73;0.20;;;1.40;99.90;;;;;;5084232;28;20180;-61
2021/01/10 00:09:52;;;;;;;1.70;0.20;;;1.40;99.90;;;;;;5089650;28;20203;-65
2021/01/10 00:12:25;;;;;;;1.73;0.20;;;1.30;99.90;;;;;;5086788;28;20172;-62
2021/01/10 00:14:51;;;;;;;1.70;0.20;;;1.30;99.90;;;;;;5082968;28;20192;-62
2021/01/10 00:17:17;;;;;;;1.73;0.20;;;1.30;99.90;;;;;;5073430;28;20207;-62
2021/01/10 00:19:47;;;;;;;1.73;0.20;;;1.30;99.90;;;;;;5087811;28;20210;-66
2021/01/10 00:22:14;;;;;;;1.75;0.20;;;1.30;99.90;;;;;;5082999;28;20741;-62
2021/01/10 00:24:43;;;;;;;1.70;0.20;;;1.30;99.90;;;;;;5091027;28;20210;-67
2021/01/10 00:27:11;;;;;;;1.73;0.20;;;1.30;99.90;;;;;;5091079;28;20184;-65
2021/01/10 00:29:37;;;;;;;1.70;0.20;;;1.40;99.90;;;;;;5083747;28;20200;-62
2021/01/10 00:32:04;;;;;;;1.70;0.20;;;1.30;99.90;;;;;;5088924;28;20195;-64
2021/01/10 00:34:30;;;;;;;1.70;0.20;;;1.40;99.90;;;;;;5091818;28;20211;-63
2021/01/10 00:36:55;;;;;;;1.70;0.20;;;1.40;99.90;;;;;;5090883;28;20759;-62
2021/01/10 00:39:21;;;;;;;1.70;0.20;;;1.30;99.90;;;;;;5078334;28;20843;-62
2021/01/10 00:41:46;;;;;;;1.70;0.20;;;1.40;99.90;;;;;;5094897;28;20207;-61
2021/01/10 00:44:12;;;;;;;1.70;0.20;;;1.40;99.90;;;;;;5085778;28;20245;-62
2021/01/10 00:46:37;;;;;;;1.70;0.20;;;1.40;99.90;;;;;;5089209;28;20220;-65
2021/01/10 00:49:03;;;;;;;2.47;1.90;;;1.40;99.90;;;;;;5086894;28;20212;-62
2021/01/10 00:51:28;;;;;;;1.80;0.20;;;1.40;99.90;;;;;;5087569;28;20189;-62
2021/01/10 00:53:54;;;;;;;1.70;0.20;;;1.40;99.90;;;;;;5092307;28;20172;-62
2021/01/10 00:56:19;;;;;;;1.70;0.20;;;1.40;99.90;;;;;;5083957;28;20176;-62
2021/01/10 00:58:45;;;;;;;1.70;0.20;;;1.30;99.90;;;;;;5087178;28;20207;-61
2021/01/10 01:01:11;;;;;;;1.70;0.20;;;1.40;99.90;;;;;;5083297;28;20187;-62
2021/01/10 01:03:36;;;;;;;1.70;0.20;;;1.30;99.90;;;;;;5085971;28;20235;-63
2021/01/10 01:06:04;;;;;;;1.70;0.20;;;1.30;99.90;;;;;;5091046;28;20441;-65
2021/01/10 01:08:29;;;;;;;1.70;0.20;;;1.20;99.90;;;;;;5086930;28;20180;-62
2021/01/10 01:10:55;;;;;;;1.70;0.20;;;1.10;99.90;;;;;;5071181;28;20194;-61
2021/01/10 01:13:20;;;;;;;1.70;0.20;;;1.00;99.90;;;;;;5090819;28;20187;-65
2021/01/10 01:15:50;;;;;;;1.70;0.20;;;1.00;99.90;;;;;;5069287;28;20279;-62
2021/01/10 01:18:18;;;;;;;1.70;0.20;;;1.00;99.90;;;;;;5084093;28;20261;-61
2021/01/10 01:20:44;;;;;;;1.70;0.20;;;1.00;99.90;;;;;;5088327;28;20203;-61
2021/01/10 01:23:09;;;;;;;1.70;0.20;;;0.90;99.90;;;;;;5076077;28;20184;-61
2021/01/10 01:25:36;;;;;;;1.70;0.20;;;0.80;99.90;;;;;;5087275;28;20239;-63
2021/01/10 01:28:02;;;;;;;1.80;0.30;;;0.80;99.90;;;;;;5091665;28;20176;-62
2021/01/10 01:30:27;;;;;;;1.70;0.20;;;0.70;99.90;;;;;;5092188;28;20272;-64
2021/01/10 01:32:53;;;;;;;1.70;0.20;;;0.70;99.90;;;;;;5090353;28;20439;-63
2021/01/10 01:35:19;;;;;;;1.75;0.20;;;0.70;99.90;;;;;;5093627;28;20179;-63
2021/01/10 01:37:45;;;;;;;1.70;0.20;;;0.80;99.90;;;;;;5093171;28;20215;-62
2021/01/10 01:40:11;;;;;;;1.70;0.20;;;0.80;99.90;;;;;;5090083;28;20990;-62
2021/01/10 01:42:37;;;;;;;1.90;0.50;;;0.70;99.90;;;;;;5091247;28;20412;-62
2021/01/10 01:45:05;;;;;;;1.70;0.20;;;0.60;99.90;;;;;;5085437;28;20181;-62
2021/01/10 01:47:32;;;;;;;1.75;0.20;;;0.60;99.90;;;;;;5093683;28;20259;-62
2021/01/10 01:49:57;;;;;;;1.70;0.20;;;0.60;99.90;;;;;;5087586;28;20207;-62
2021/01/10 01:52:23;;;;;;;1.70;0.20;;;0.50;99.90;;;;;;5089948;28;20184;-62
2021/01/10 01:54:49;;;;;;;2.10;1.57;;;0.50;99.90;;;;;;5093725;28;20194;-62
2021/01/10 01:57:14;;;;;;;1.70;0.20;;;0.50;99.90;;;;;;5090274;28;20207;-64
2021/01/10 01:59:40;;;;;;;1.70;0.20;;;0.60;99.90;;;;;;5087360;28;20204;-62
2021/01/10 02:02:06;;;;;;;1.70;0.20;;;0.60;99.90;;;;;;5092018;28;20728;-62
2021/01/10 02:04:37;;;;;;;1.70;0.20;;;0.70;99.90;;;;;;5089377;28;20184;-62
2021/01/10 02:07:22;;;;;;;1.70;0.20;;;0.70;99.90;;;;;;5088790;28;20189;-62
2021/01/10 02:09:54;;;;;;;1.70;0.20;;;0.70;99.90;;;;;;5093379;28;20211;-62
2021/01/10 02:12:21;;;;;;;1.70;0.20;;;0.70;99.90;;;;;;5089079;28;20523;-61
2021/01/10 02:14:56;;;;;;;1.70;0.20;;;0.70;99.90;;;;;;5087081;28;20200;-61
2021/01/10 02:17:22;;;;;;;1.70;0.20;;;0.70;99.90;;;;;;5093343;28;20282;-62
2021/01/10 02:19:56;;;;;;;1.70;0.20;;;0.70;99.90;;;;;;5087464;28;20303;-62
2021/01/10 02:22:26;;;;;;;1.70;0.20;;;0.60;99.90;;;;;;5085294;28;20416;-62
2021/01/10 02:24:52;;;;;;;1.70;0.20;;;0.60;99.90;;;;;;5092157;28;20181;-62
2021/01/10 02:27:18;;;;;;;1.70;0.20;;;0.60;99.90;;;;;;5090889;28;20187;-62
2021/01/10 02:29:44;;;;;;;1.70;0.20;;;0.60;99.90;;;;;;5087793;28;20444;-62
2021/01/10 02:32:11;;;;;;;1.70;0.20;;;0.60;99.90;;;;;;5090735;28;20180;-61
2021/01/10 02:34:38;;;;;;;1.80;0.50;;;0.60;99.90;;;;;;5089140;28;20192;-61
2021/01/10 02:37:26;;;;;;;1.73;0.20;;;0.50;99.90;;;;;;5089552;28;20211;-63
2021/01/10 02:40:09;;;;;;;1.75;0.20;;;0.50;99.90;;;;;;5087439;28;20232;-62
2021/01/10 02:42:57;;;;;;;1.77;0.20;;;0.40;99.90;;;;;;5089726;28;20184;-62
2021/01/10 02:45:24;;;;;;;1.70;0.20;;;0.40;99.90;;;;;;5081812;28;20230;-62
2021/01/10 02:47:50;;;;;;;1.75;0.20;;;0.40;99.90;;;;;;5091893;28;20195;-62
2021/01/10 02:50:18;;;;;;;1.80;0.40;;;0.40;99.90;;;;;;5086829;28;20206;-62
2021/01/10 02:52:47;;;;;;;1.70;0.20;;;0.40;99.90;;;;;;5080156;28;20207;-65
2021/01/10 02:55:13;;;;;;;1.70;0.20;;;0.40;99.90;;;;;;5092079;28;20192;-64
2021/01/10 02:57:42;;;;;;;1.70;0.20;;;0.40;99.90;;;;;;5091404;28;20231;-61
2021/01/10 03:00:11;;;;;;;1.70;0.20;;;0.30;99.90;;;;;;5083827;28;20226;-61
2021/01/10 03:02:37;;;;;;;2.33;1.95;;;0.30;99.90;;;;;;5090486;28;20579;-68
2021/01/10 03:05:05;;;;;;;1.70;0.20;;;0.20;99.90;;;;;;5078553;28;20184;-63
2021/01/10 03:07:33;;;;;;;1.70;0.20;;;0.10;99.90;;;;;;5097639;28;20347;-62
2021/01/10 03:09:59;;;;;;;1.70;0.20;;;0.20;99.90;;;;;;5104271;28;20211;-64
2021/01/10 03:12:26;;;;;;;1.73;0.20;;;0.30;99.90;;;;;;5095719;28;20312;-66
2021/01/10 03:15:00;;;;;;;1.70;0.20;;;0.30;99.90;;;;;;5098532;28;20630;-66
2021/01/10 03:17:40;;;;;;;1.70;0.20;;;0.30;99.90;;;;;;5074397;28;20570;-62
2021/01/10 03:20:08;;;;;;;1.73;0.20;;;0.30;99.90;;;;;;5088497;28;20196;-62
2021/01/10 03:22:35;;;;;;;1.75;0.22;;;0.30;99.90;;;;;;5087707;28;20216;-62
2021/01/10 03:25:01;;;;;;;1.70;0.20;;;0.30;99.90;;;;;;5090619;28;20188;-62
2021/01/10 03:27:26;;;;;;;1.73;0.20;;;0.30;99.90;;;;;;5084965;28;20180;-62
2021/01/10 03:29:53;;;;;;;1.70;0.20;;;0.20;99.90;;;;;;5087001;28;20494;-63
2021/01/10 03:32:18;;;;;;;1.70;0.20;;;0.30;99.90;;;;;;5091642;28;20184;-62
2021/01/10 03:34:44;;;;;;;1.70;0.20;;;0.40;99.90;;;;;;5088586;28;20554;-64
2021/01/10 03:37:09;;;;;;;1.77;0.20;;;0.50;99.90;;;;;;5088951;28;20211;-64
2021/01/10 03:39:35;;;;;;;1.70;0.20;;;0.50;99.90;;;;;;5088969;28;20215;-64
2021/01/10 03:42:01;;;;;;;1.70;0.20;;;0.50;99.90;;;;;;5086066;28;20212;-64
2021/01/10 03:44:26;;;;;;;1.70;0.30;;;0.50;99.90;;;;;;5090808;28;20279;-64
2021/01/10 03:46:52;;;;;;;1.70;0.20;;;0.60;99.90;;;;;;5091307;28;20215;-64
2021/01/10 03:49:18;;;;;;;1.70;0.20;;;0.60;99.90;;;;;;5084932;28;20199;-64
2021/01/10 03:51:44;;;;;;;1.70;0.20;;;0.70;99.90;;;;;;5088351;28;20187;-64
2021/01/10 03:54:09;;;;;;;1.70;0.20;;;0.80;99.90;;;;;;5090446;28;20732;-64
2021/01/10 03:56:35;;;;;;;1.70;0.20;;;0.80;99.90;;;;;;5084905;28;20210;-64
2021/01/10 03:59:00;;;;;;;1.70;0.20;;;0.80;99.90;;;;;;5089128;28;20204;-64
2021/01/10 04:01:26;;;;;;;1.73;0.20;;;0.80;99.90;;;;;;5085120;28;20199;-64
2021/01/10 04:03:51;;;;;;;1.70;0.20;;;0.70;99.90;;;;;;5085852;28;20593;-64
2021/01/10 04:06:17;;;;;;;3.03;2.77;;;0.70;99.90;;;;;;5087406;28;20516;-64
2021/01/10 04:08:45;;;;;;;1.70;0.20;;;0.70;99.90;;;;;;5086422;28;20207;-64
2021/01/10 04:11:11;;;;;;;1.70;0.20;;;0.80;99.90;;;;;;5085792;28;20180;-64
2021/01/10 04:13:37;;;;;;;1.70;0.20;;;0.80;99.90;;;;;;5087067;28;20259;-64
2021/01/10 04:16:02;;;;;;;1.70;0.20;;;0.80;99.90;;;;;;5081129;28;20184;-64
2021/01/10 04:18:28;;;;;;;1.70;0.20;;;0.80;99.90;;;;;;5087347;28;20204;-64
2021/01/10 04:20:53;;;;;;;1.70;0.20;;;0.90;99.90;;;;;;5088931;28;20227;-63
2021/01/10 04:23:18;;;;;;;1.70;0.20;;;0.90;99.90;;;;;;5083074;28;20176;-64
2021/01/10 04:25:44;;;;;;;1.70;0.20;;;0.90;99.90;;;;;;5088674;28;20263;-64
2021/01/10 04:28:09;;;;;;;2.00;1.20;;;0.90;99.90;;;;;;5084880;28;20689;-64
2021/01/10 04:30:35;;;;;;;1.70;0.20;;;0.90;99.90;;;;;;5081757;28;20262;-64
2021/01/10 04:33:01;;;;;;;1.70;0.20;;;1.00;99.90;;;;;;5088851;28;20185;-64
2021/01/10 04:35:26;;;;;;;1.70;0.20;;;0.90;99.90;;;;;;5087244;28;20184;-64
2021/01/10 04:37:52;;;;;;;1.80;0.30;;;0.90;99.90;;;;;;5084613;28;20207;-64
2021/01/10 04:40:17;;;;;;;1.70;0.20;;;0.90;99.90;;;;;;5090143;28;20208;-63
2021/01/10 04:42:44;;;;;;;1.70;0.20;;;0.90;99.90;;;;;;5083031;28;20198;-64
2021/01/10 04:45:10;;;;;;;1.70;0.20;;;0.90;99.90;;;;;;5086528;28;20185;-64
2021/01/10 04:47:36;;;;;;;1.70;0.20;;;0.90;99.90;;;;;;5090715;28;20230;-64
2021/01/10 04:50:02;;;;;;;1.70;0.20;;;0.90;99.90;;;;;;5089075;28;20231;-64
2021/01/10 04:52:31;;;;;;;1.70;0.20;;;0.90;99.90;;;;;;5087740;28;20223;-63
2021/01/10 04:55:00;;;;;;;1.70;0.20;;;1.00;99.90;;;;;;5088923;28;20180;-64
2021/01/10 04:57:27;;;;;;;1.75;0.20;;;0.90;99.90;;;;;;5084241;28;20307;-64
2021/01/10 04:59:54;;;;;;;1.70;0.20;;;1.00;99.90;;;;;;5084098;28;20212;-64
2021/01/10 05:02:25;;;;;;;1.75;0.20;;;1.00;99.90;;;;;;5089510;28;20617;-64
2021/01/10 05:04:50;;;;;;;1.70;0.20;;;1.00;99.90;;;;;;5094919;28;20183;-64
2021/01/10 05:07:16;;;;;;;1.70;0.20;;;1.00;99.90;;;;;;5097095;28;20290;-64
2021/01/10 05:09:42;;;;;;;1.70;0.20;;;0.90;99.90;;;;;;5096381;28;20211;-64
2021/01/10 05:12:08;;;;;;;1.70;0.20;;;0.80;99.90;;;;;;5097170;28;20184;-64
2021/01/10 05:14:34;;;;;;;1.70;0.20;;;0.80;99.90;;;;;;5104957;28;20257;-64
2021/01/10 05:16:59;;;;;;;1.70;0.20;;;0.80;99.90;;;;;;5087898;28;20698;-64
2021/01/10 05:19:29;;;;;;;1.70;0.20;;;0.80;99.90;;;;;;5096078;28;20465;-64
2021/01/10 05:21:55;;;;;;;1.70;0.20;;;0.80;99.90;;;;;;5107155;28;20188;-63
2021/01/10 05:24:20;;;;;;;1.80;0.30;;;0.80;99.90;;;;;;5097375;28;20216;-64
2021/01/10 05:26:47;;;;;;;1.70;0.20;;;0.90;99.90;;;;;;5097220;28;20944;-64
2021/01/10 05:29:13;;;;;;;1.70;0.20;;;0.90;99.90;;;;;;5096548;28;20601;-64
2021/01/10 05:31:39;;;;;;;1.70;0.20;;;0.80;99.90;;;;;;5102287;28;20190;-64
2021/01/10 05:34:06;;;;;;;2.53;1.58;;;0.90;99.90;;;;;;5103293;28;20262;-64
2021/01/10 05:36:34;;;;;;;1.75;0.30;;;1.00;99.90;;;;;;5116469;28;20160;-63
2021/01/10 05:39:18;;;;;;;2.25;0.82;;;0.90;99.90;;;;;;5129570;28;20203;-64
2021/01/10 05:41:55;;;;;;;1.70;0.20;;;0.80;99.90;;;;;;5120338;28;20211;-64
2021/01/10 05:44:22;;;;;;;1.73;0.20;;;0.60;99.90;;;;;;5117521;28;20219;-63
2021/01/10 05:46:48;;;;;;;1.70;0.20;;;0.60;99.90;;;;;;5116860;28;20172;-64
2021/01/10 05:49:19;;;;;;;1.70;0.20;;;0.70;99.90;;;;;;5121293;28;20210;-64
2021/01/10 05:51:45;;;;;;;1.70;0.20;;;0.80;99.90;;;;;;5114828;28;20279;-64
2021/01/10 05:54:37;;;;;;;1.73;0.20;;;0.80;99.90;;;;;;5123320;28;20175;-66
2021/01/10 05:57:05;;;;;;;1.70;0.20;;;0.90;99.90;;;;;;5118776;28;20203;-64
2021/01/10 05:59:34;;;;;;;2.08;0.82;;;0.90;99.90;;;;;;5113239;28;20207;-64
2021/01/10 06:02:05;;;;;;;1.70;0.20;;;0.90;99.90;;;;;;5096387;28;20539;-64
2021/01/10 06:04:32;;;;;;;1.75;0.20;;;0.90;99.90;;;;;;5094724;28;20214;-64
2021/01/10 06:06:58;;;;;;;1.70;0.20;;;1.00;99.90;;;;;;5093598;28;20601;-64
2021/01/10 06:09:25;;;;;;;1.73;0.20;;;1.00;99.90;;;;;;5101421;28;20207;-64
2021/01/10 06:11:51;;;;;;;1.90;0.75;;;0.90;99.90;;;;;;5108709;28;20252;-64
2021/01/10 06:14:22;;;;;;;1.70;0.20;;;0.90;99.90;;;;;;5108635;28;20206;-63
2021/01/10 06:16:57;;;;;;;1.70;0.20;;;0.80;99.90;;;;;;5108617;28;20411;-64
2021/01/10 06:19:35;;;;;;;1.73;0.20;;;0.80;99.90;;;;;;5097625;28;20203;-65
2021/01/10 06:22:04;;;;;;;1.73;0.20;;;0.80;99.90;;;;;;5102778;28;20248;-64
2021/01/10 06:24:36;;;;;;;1.73;0.20;;;0.80;99.90;;;;;;5099629;28;20176;-64
2021/01/10 06:27:05;;;;;;;1.70;0.20;;;0.70;99.90;;;;;;5108153;28;20185;-63
2021/01/10 06:29:37;;;;;;;1.70;0.20;;;0.70;99.90;;;;;;5110480;28;20220;-64
2021/01/10 06:32:09;;;;;;;1.70;0.20;;;0.70;99.90;;;;;;5092871;28;20263;-64
2021/01/10 06:34:38;;;;;;;1.70;0.20;;;0.60;99.90;;;;;;5088612;28;20177;-64
2021/01/10 06:37:07;;;;;;;1.70;0.20;;;0.50;99.90;;;;;;5089597;28;20663;-64
2021/01/10 06:39:38;;;;;;;1.70;0.20;;;0.40;99.90;;;;;;5088660;28;20245;-64
2021/01/10 06:42:09;;;;;;;1.70;0.20;;;0.30;99.90;;;;;;5085817;28;20177;-64
2021/01/10 06:44:37;;;;;;;1.70;0.20;;;0.30;99.90;;;;;;5093186;28;20169;-64
2021/01/10 06:47:04;;;;;;;1.70;0.20;;;0.30;99.90;;;;;;5089726;28;20538;-64
2021/01/10 06:49:29;;;;;;;1.70;0.20;;;0.30;99.90;;;;;;5089502;28;20212;-64
2021/01/10 06:51:58;;;;;;;1.70;0.20;;;0.30;99.90;;;;;;5090635;28;20234;-63
2021/01/10 06:54:25;;;;;;;1.70;0.20;;;0.30;99.90;;;;;;5086449;28;20614;-64
2021/01/10 06:56:52;;;;;;;1.70;0.20;;;0.40;99.90;;;;;;5089241;28;20211;-64
2021/01/10 06:59:23;;;;;;;1.70;0.20;;;0.30;99.90;;;;;;5088919;28;20199;-64
2021/01/10 07:01:48;;;;;;;1.75;0.20;;;0.30;99.90;;;;;;5088721;28;20196;-64
2021/01/10 07:04:15;;;;;;;1.70;0.20;;;0.30;99.90;;;;;;5083196;28;20198;-64
2021/01/10 07:06:50;;;;;;;1.70;0.20;;;0.30;99.90;;;;;;5090068;28;20196;-64
2021/01/10 07:09:17;;;;;;;3.35;1.17;;;0.40;99.90;;;;;;5084941;28;20721;-64
2021/01/10 07:11:43;;;;;;;1.70;0.20;;;0.40;99.90;;;;;;5090552;28;20184;-64
2021/01/10 07:14:09;;;;;;;1.70;0.20;;;0.30;99.90;;;;;;5094905;28;20565;-64
2021/01/10 07:16:35;;;;;;;1.70;0.20;;;0.30;99.90;;;;;;5086537;28;20222;-64
2021/01/10 07:19:03;;;;;;;1.73;0.20;;;0.40;99.90;;;;;;5092043;28;20218;-64
2021/01/10 07:21:32;;;;;;;2.20;1.75;;;0.40;99.90;;;;;;5086913;28;20186;-64
2021/01/10 07:24:13;;;;;;;1.70;0.20;;;0.50;99.90;;;;;;5084473;28;20215;-63
2021/01/10 07:26:39;;;;;;;1.70;0.20;;;0.50;99.90;;;;;;5089501;28;20183;-64
2021/01/10 07:29:24;;;;;;;1.70;0.20;;;0.50;99.90;;;;;;5084667;28;20617;-64
2021/01/10 07:31:56;;;;;;;2.20;1.88;;;0.50;99.90;;;;;;5088353;28;20191;-64
2021/01/10 07:34:22;;;;;;;1.73;0.20;;;0.50;99.90;;;;;;5082488;28;20269;-64
2021/01/10 07:36:50;;;;;;;1.70;0.20;;;0.50;99.90;;;;;;5088570;28;20188;-63
2021/01/10 07:39:18;;;;;;;1.70;0.30;;;0.60;99.90;;;;;;5086360;28;20566;-64
2021/01/10 07:41:44;;;;;;;1.70;0.20;;;0.60;99.90;;;;;;5087710;28;20183;-64
2021/01/10 07:44:10;;;;;;;4.00;3.60;;;0.60;99.90;;;;;;5090457;28;20539;-63
2021/01/10 07:46:52;;;;;;;1.80;0.30;;;0.70;99.90;;;;;;5082445;28;20207;-65
2021/01/10 07:49:23;;;;;;;1.83;0.47;;;0.70;99.90;;;;;;5088811;28;20470;-63
2021/01/10 07:51:49;;;;;;;1.70;0.20;;;0.70;99.90;;;;;;5090859;28;20255;-64
2021/01/10 07:54:15;;;;;;;1.70;0.20;;;0.80;99.90;;;;;;5087714;28;20187;-64
2021/01/10 07:56:40;;;;;;;4.20;0.95;;;0.80;99.90;;;;;;5089495;28;20244;-64
2021/01/10 07:59:18;;;;;;;1.70;0.20;;;0.80;99.90;;;;;;5081915;28;20208;-64
2021/01/10 08:01:51;;;;;;;1.70;0.20;;;0.80;99.90;;;;;;5079390;28;20222;-63
2021/01/10 08:04:31;;;;;;;1.70;0.20;;;0.70;99.90;;;;;;5080745;28;20198;-64
2021/01/10 08:06:59;;;;;;;1.77;0.30;;;0.70;99.90;;;;;;5088307;28;20199;-64
2021/01/10 08:09:31;;;;;;;1.70;0.20;;;0.60;99.90;;;;;;5082174;28;20214;-64
2021/01/10 08:11:57;;;;;;;1.77;0.20;;;0.50;99.90;;;;;;5087411;28;20181;-63
2021/01/10 08:14:23;;;;;;;1.70;0.20;;;0.50;99.90;;;;;;5085927;28;20186;-65
2021/01/10 08:16:48;;;;;;;1.70;0.20;;;0.70;99.90;;;;;;5080588;28;20416;-64
2021/01/10 08:19:15;;;;;;;1.70;0.20;;;0.70;99.90;;;;;;5095560;28;20207;-64
2021/01/10 08:21:41;;;;;;;1.70;0.20;;;0.70;99.90;;;;;;5090350;28;20696;-63
2021/01/10 08:24:07;;;;;;;1.70;0.20;;;0.80;99.90;;;;;;5084016;28;20208;-64
2021/01/10 08:26:40;;;;;;;1.70;0.20;;;0.70;99.90;;;;;;5085375;28;20542;-63
2021/01/10 08:29:06;;;;;;;1.73;0.20;;;0.70;99.90;;;;;;5084181;28;20303;-64
2021/01/10 08:31:33;;;;;;;1.70;0.20;;;0.70;99.90;;;;;;5098331;28;20310;-64
2021/01/10 08:34:03;;;;;;;1.77;0.20;;;0.60;99.90;;;;;;5103661;28;20189;-64
2021/01/10 08:36:29;;;;;;;1.70;0.20;;;0.60;99.90;;;;;;5104914;28;20180;-65
2021/01/10 08:39:06;;;;;;;1.73;0.20;;;0.70;99.90;;;;;;5096332;28;20271;-64
2021/01/10 08:41:36;;;;;;;1.73;0.30;;;0.70;99.90;;;;;;5094835;28;20186;-63
2021/01/10 08:44:13;;;;;;;1.70;0.20;;;0.60;99.90;;;;;;5085935;28;20172;-63
2021/01/10 08:46:42;;;;;;;1.73;0.30;;;0.50;99.90;;;;;;5090241;28;20176;-63
2021/01/10 08:49:08;;;;;;;1.70;0.20;;;0.50;99.90;;;;;;5089482;28;20199;-63
2021/01/10 08:51:37;;;;;;;1.70;0.20;;;0.50;99.90;;;;;;5087356;28;20670;-64
2021/01/10 08:54:09;;;;;;;1.73;0.20;;;0.50;99.90;;;;;;5085522;28;20267;-64
2021/01/10 08:56:35;;;;;;;1.70;0.20;;;0.50;99.90;;;;;;5090167;28;20242;-64
2021/01/10 08:59:00;;;;;;;1.73;0.20;;;0.50;99.90;;;;;;5086782;28;20207;-64
2021/01/10 09:01:27;;;;;;;1.70;0.20;;;0.50;99.90;;;;;;5083526;28;20207;-64
2021/01/10 09:03:57;;;;;;;1.70;0.20;;;0.50;99.90;;;;;;5087121;28;20923;-64
2021/01/10 09:06:49;;;;;;;1.70;0.20;;;0.50;99.90;;;;;;5086414;28;20551;-64
2021/01/10 09:09:30;;;;;;;2.60;1.75;;;0.60;99.90;;;;;;5084116;28;20239;-65
2021/01/10 09:12:22;;;;;;;1.70;0.20;;;0.70;99.90;;;;;;5088729;28;20429;-64
2021/01/10 09:15:11;;;;;;;1.70;0.20;;;0.60;99.90;;;;;;5088133;28;20179;-64
2021/01/10 09:17:55;;;;;;;1.70;0.20;;;0.70;99.90;;;;;;5084619;28;20341;-64
2021/01/10 09:20:28;;;;;;;1.80;0.30;;;0.70;99.90;;;;;;5085891;28;20198;-64
2021/01/10 09:22:56;;;;;;;1.73;0.20;;;0.90;99.90;;;;;;5087141;28;20172;-63
2021/01/10 09:25:22;;;;;;;1.80;0.20;;;0.70;99.90;;;;;;5081850;28;20541;-64
2021/01/10 09:28:08;;;;;;;1.70;0.20;;;0.70;99.90;;;;;;5083427;28;20191;-64
2021/01/10 09:30:41;;;;;;;1.73;0.20;;;0.80;99.90;;;;;;5089134;28;20596;-64
2021/01/10 09:33:08;;;;;;;1.73;0.20;;;0.80;99.90;;;;;;5090225;28;20187;-65
2021/01/10 09:35:45;;;;;;;3.38;1.75;;;0.80;99.90;;;;;;5086999;28;20218;-64
2021/01/10 09:38:16;;;;;;;1.70;0.20;;;0.90;99.90;;;;;;5079800;28;20214;-64
2021/01/10 09:41:03;;;;;;;5.63;1.25;;;0.90;99.90;;;;;;5084112;23;20262;-57
2021/01/10 09:43:35;;;;;;;1.70;0.20;;;0.90;99.90;;;;;;5065161;28;20181;-58
2021/01/10 09:46:00;;;;;;;1.70;0.20;;;0.90;99.90;;;;;;5062177;28;20200;-59
2021/01/10 09:48:26;;;;;;;1.70;0.20;;;1.00;99.90;;;;;;5061609;28;20193;-58
2021/01/10 09:50:51;;;;;;;1.70;0.20;;;1.00;99.90;;;;;;5065212;28;20204;-58
2021/01/10 09:53:24;;;;;;;1.70;0.20;;;1.00;99.90;;;;;;5076793;28;20181;-59
2021/01/10 09:55:49;;;;;;;1.70;0.20;;;1.00;99.90;;;;;;5075740;28;20210;-56
2021/01/10 09:58:15;;;;;;;1.77;0.20;;;1.10;99.90;;;;;;5069598;28;20293;-58
2021/01/10 10:00:55;;;;;;;1.70;0.20;;;1.10;99.90;;;;;;5072240;28;20654;-57
2021/01/10 10:03:20;;;;;;;2.25;1.58;;;1.10;99.90;;;;;;5070028;28;20191;-58
2021/01/10 10:05:58;;;;;;;2.00;0.83;;;1.10;99.90;;;;;;5066272;28;20181;-56
2021/01/10 10:08:24;;;;;;;1.75;0.20;;;1.10;99.90;;;;;;5067073;28;20184;-57
2021/01/10 10:10:50;;;;;;;1.90;0.60;;;1.10;99.90;;;;;;5064610;28;20207;-58
2021/01/10 10:13:27;;;;;;;2.63;0.67;;;1.10;99.90;;;;;;5069318;28;20913;-58
2021/01/10 10:15:54;;;;;;;1.75;0.30;;;1.10;99.90;;;;;;5073805;28;20192;-57
2021/01/10 10:18:23;;;;;;;1.70;0.20;;;1.10;99.90;;;;;;5071246;28;20207;-58
2021/01/10 10:20:50;;;;;;;1.70;0.20;;;1.20;99.90;;;;;;5066179;28;20201;-58
2021/01/10 10:23:16;;;;;;;1.70;0.20;;;1.20;99.90;;;;;;5069938;28;20179;-58
2021/01/10 10:25:49;;;;;;;1.70;0.20;;;1.20;99.90;;;;;;5050613;28;20205;-58
2021/01/10 10:28:16;;;;;;;3.17;2.67;;;1.30;99.90;;;;;;5068712;28;20651;-59
2021/01/10 10:30:42;;;;;;;1.73;0.20;;;1.30;99.90;;;;;;5069273;28;20213;-58
2021/01/10 10:33:08;;;;;;;2.60;0.77;;;1.30;99.90;;;;;;5070515;28;20177;-57
2021/01/10 10:35:34;;;;;;;3.25;1.20;;;1.40;99.90;;;;;;5068511;28;20193;-56
2021/01/10 10:38:00;;;;;;;1.70;0.20;;;1.40;99.90;;;;;;5071043;28;20188;-58
2021/01/10 10:40:25;;;;;;;2.53;1.90;;;1.40;99.90;;;;;;5065235;28;20720;-58
2021/01/10 10:42:51;;;;;;;1.70;0.20;;;1.40;99.90;;;;;;5071661;28;20288;-58
2021/01/10 10:45:17;;;;;;;1.70;0.20;;;1.50;99.90;;;;;;5074308;28;20736;-58
2021/01/10 10:47:43;;;;;;;1.73;0.20;;;1.50;99.90;;;;;;5070505;28;20211;-58
2021/01/10 10:50:09;;;;;;;1.70;0.20;;;1.50;99.90;;;;;;5070236;28;20200;-59
2021/01/10 10:52:35;;;;;;;1.70;0.20;;;1.60;99.90;;;;;;5065962;28;20598;-59
2021/01/10 10:55:01;;;;;;;1.70;0.20;;;1.60;99.90;;;;;;5066935;28;20181;-58
2021/01/10 10:57:26;;;;;;;1.70;0.20;;;1.60;99.90;;;;;;5072505;28;20217;-58
2021/01/10 10:59:52;;;;;;;1.73;0.20;;;1.70;99.90;;;;;;5064197;28;20244;-60
2021/01/10 11:02:17;;;;;;;1.70;0.20;;;1.70;99.90;;;;;;5068163;28;20185;-58
2021/01/10 11:04:46;;;;;;;1.70;0.20;;;1.80;99.90;;;;;;5064685;28;20185;-59
2021/01/10 11:07:16;;;;;;;1.73;0.20;;;1.80;99.90;;;;;;5067399;28;20282;-59
2021/01/10 11:09:42;;;;;;;1.73;0.20;;;1.90;99.90;;;;;;5066387;28;20219;-58
2021/01/10 11:12:10;;;;;;;1.70;0.20;;;1.90;99.90;;;;;;5050043;28;20273;-58
2021/01/10 11:14:36;;;;;;;1.73;0.20;;;1.90;99.90;;;;;;5070541;28;20311;-59
2021/01/10 11:17:07;;;;;;;1.73;0.20;;;2.00;99.90;;;;;;5069758;28;20264;-59
2021/01/10 11:19:33;;;;;;;1.73;0.20;;;2.00;99.90;;;;;;5068762;28;20205;-58
2021/01/10 11:22:04;;;;;;;1.70;0.20;;;2.10;99.90;;;;;;5066066;28;20177;-59
2021/01/10 11:24:30;;;;;;;1.70;0.20;;;2.10;99.90;;;;;;5068678;28;20335;-59
2021/01/10 11:26:56;;;;;;;1.70;0.20;;;2.10;99.90;;;;;;5069490;28;20259;-59
2021/01/10 11:29:21;;;;;;;1.70;0.20;;;2.10;99.90;;;;;;5063627;28;20240;-59
2021/01/10 11:31:47;;;;;;;2.87;1.23;;;2.10;99.90;;;;;;5069926;28;20473;-59
2021/01/10 11:34:14;;;;;;;1.70;0.20;;;2.10;99.90;;;;;;5065752;28;20184;-59
2021/01/10 11:36:43;;;;;;;1.73;0.20;;;2.10;99.90;;;;;;5067213;28;20437;-59
2021/01/10 11:39:09;;;;;;;3.45;1.52;;;2.10;99.90;;;;;;5062848;28;20223;-59
2021/01/10 11:41:34;;;;;;;2.53;0.73;;;2.10;99.90;;;;;;5068309;28;20185;-59
2021/01/10 11:44:00;;;;;;;1.73;0.27;;;2.20;99.90;;;;;;5064542;28;20199;-59
2021/01/10 11:46:25;;;;;;;1.70;0.20;;;2.20;99.90;;;;;;5073132;28;20177;-61
2021/01/10 11:48:51;;;;;;;1.80;0.40;;;2.20;99.90;;;;;;5065664;28;20200;-59
2021/01/10 11:51:18;;;;;;;1.77;0.30;;;2.30;99.90;;;;;;5064450;28;20189;-58
2021/01/10 11:53:44;;;;;;;1.73;0.20;;;2.30;99.90;;;;;;5073624;28;20191;-58
2021/01/10 11:56:10;;;;;;;1.70;0.20;;;2.30;99.90;;;;;;5068130;28;20184;-60
2021/01/10 11:58:40;;;;;;;1.70;0.30;;;2.30;99.90;;;;;;5063770;28;20703;-59
2021/01/10 12:01:06;;;;;;;1.70;0.20;;;2.40;99.90;;;;;;5060330;28;20193;-58
2021/01/10 12:03:31;;;;;;;1.90;0.40;;;2.40;99.90;;;;;;5065670;28;20182;-59
2021/01/10 12:05:57;;;;;;;1.70;0.20;;;2.40;99.90;;;;;;5063960;28;20410;-59
2021/01/10 12:08:23;;;;;;;1.70;0.20;;;2.50;99.90;;;;;;5064283;28;20732;-60
2021/01/10 12:10:50;;;;;;;1.73;0.20;;;2.50;99.90;;;;;;5066364;28;20247;-60
2021/01/10 12:13:16;;;;;;;1.70;0.20;;;2.50;99.90;;;;;;5064313;28;20238;-59
2021/01/10 12:15:44;;;;;;;1.70;0.20;;;2.50;99.90;;;;;;5067054;28;20180;-59
2021/01/10 12:18:10;;;;;;;1.80;0.40;;;2.50;99.90;;;;;;5063139;28;20288;-59
2021/01/10 12:20:36;;;;;;;1.70;0.20;;;2.50;99.90;;;;;;5072060;28;20240;-60
2021/01/10 12:23:02;;;;;;;1.70;0.20;;;2.50;99.90;;;;;;5065024;28;20177;-59
2021/01/10 12:25:28;;;;;;;1.73;0.20;;;2.60;99.90;;;;;;5067246;28;20528;-59
2021/01/10 12:27:54;;;;;;;1.70;0.20;;;2.60;99.90;;;;;;5070218;28;20187;-60
2021/01/10 12:30:21;;;;;;;1.73;0.20;;;2.60;99.90;;;;;;5068364;28;20792;-60
2021/01/10 12:32:47;;;;;;;1.73;0.20;;;2.70;99.90;;;;;;5066501;28;20189;-59
2021/01/10 12:35:16;;;;;;;1.70;0.20;;;2.70;99.90;;;;;;5069693;28;20678;-63
2021/01/10 12:37:43;;;;;;;1.70;0.20;;;2.70;99.90;;;;;;5062471;28;20474;-62
2021/01/10 12:40:12;;;;;;;1.70;0.20;;;2.70;99.90;;;;;;5065828;28;20204;-60
2021/01/10 12:42:38;;;;;;;4.22;1.38;;;2.70;99.90;;;;;;5069951;28;20181;-60
2021/01/10 12:45:06;;;;;;;2.20;0.98;;;2.70;99.90;;;;;;5068093;28;20176;-62
2021/01/10 12:47:32;;;;;;;1.70;0.20;;;2.70;99.90;;;;;;5069269;28;20217;-60
2021/01/10 12:49:57;;;;;;;1.70;0.20;;;2.80;99.90;;;;;;5064035;28;20299;-60
2021/01/10 12:52:23;;;;;;;1.70;0.20;;;2.80;99.90;;;;;;5072575;28;20212;-60
2021/01/10 12:54:48;;;;;;;1.70;0.20;;;2.70;99.90;;;;;;5065978;28;20193;-60
2021/01/10 12:57:14;;;;;;;2.30;0.70;;;2.80;99.90;;;;;;5067160;28;20196;-60
2021/01/10 12:59:40;;;;;;;1.70;0.20;;;2.80;99.90;;;;;;5067788;28;20208;-60
2021/01/10 13:02:06;;;;;;;2.30;0.75;;;2.80;99.90;;;;;;5067649;28;20656;-60